sensor_id;sensor_type;location;lat;lon;timestamp;P1;durP1;ratioP1;P2;durP2;ratioP2
69358;SDS011;56520;49.066;8.660;2024-02-16T00:00:04;6.82;;;1.90;;
69358;SDS011;56520;49.066;8.660;2024-02-16T00:02:30;6.00;;;2.17;;
69358;SDS011;56520;49.066;8.660;2024-02-16T00:04:57;4.35;;;1.63;;
69358;SDS011;56520;49.066;8.660;2024-02-16T00:07:23;5.25;;;2.20;;
69358;SDS011;56520;49.066;8.660;2024-02-16T00:09:49;6.35;;;1.75;;
69358;SDS011;56520;49.066;8.660;2024-02-16T00:12:14;6.13;;;2.08;;
69358;SDS011;56520;49.066;8.660;2024-02-16T00:14:40;8.48;;;1.95;;
69358;SDS011;56520;49.066;8.660;2024-02-16T00:17:05;7.50;;;2.15;;
69358;SDS011;56520;49.066;8.660;2024-02-16T00:19:32;5.60;;;2.15;;
69358;SDS011;56520;49.066;8.660;2024-02-16T00:21:57;4.65;;;1.70;;
69358;SDS011;56520;49.066;8.660;2024-02-16T00:24:23;5.97;;;2.00;;
69358;SDS011;56520;49.066;8.660;2024-02-16T00:26:48;5.45;;;2.15;;
69358;SDS011;56520;49.066;8.660;2024-02-16T00:29:14;4.40;;;1.80;;
69358;SDS011;56520;49.066;8.660;2024-02-16T00:31:40;4.55;;;1.65;;
69358;SDS011;56520;49.066;8.660;2024-02-16T00:34:05;4.80;;;1.70;;
69358;SDS011;56520;49.066;8.660;2024-02-16T00:36:31;5.88;;;2.28;;
69358;SDS011;56520;49.066;8.660;2024-02-16T00:38:59;4.75;;;1.63;;
69358;SDS011;56520;49.066;8.660;2024-02-16T00:41:24;5.85;;;1.85;;
69358;SDS011;56520;49.066;8.660;2024-02-16T00:43:51;6.88;;;2.00;;
69358;SDS011;56520;49.066;8.660;2024-02-16T00:46:17;8.50;;;2.55;;
69358;SDS011;56520;49.066;8.660;2024-02-16T00:48:43;5.43;;;2.05;;
69358;SDS011;56520;49.066;8.660;2024-02-16T00:51:08;4.65;;;1.80;;
69358;SDS011;56520;49.066;8.660;2024-02-16T00:53:34;5.47;;;1.90;;
69358;SDS011;56520;49.066;8.660;2024-02-16T00:55:59;5.45;;;1.75;;
69358;SDS011;56520;49.066;8.660;2024-02-16T00:58:24;5.32;;;1.80;;
69358;SDS011;56520;49.066;8.660;2024-02-16T01:00:50;5.75;;;1.90;;
69358;SDS011;56520;49.066;8.660;2024-02-16T01:03:15;6.38;;;2.30;;
69358;SDS011;56520;49.066;8.660;2024-02-16T01:05:41;6.57;;;2.25;;
69358;SDS011;56520;49.066;8.660;2024-02-16T01:08:06;5.28;;;1.98;;
69358;SDS011;56520;49.066;8.660;2024-02-16T01:10:32;5.80;;;2.03;;
69358;SDS011;56520;49.066;8.660;2024-02-16T01:12:57;6.18;;;1.65;;
69358;SDS011;56520;49.066;8.660;2024-02-16T01:15:23;5.97;;;2.03;;
69358;SDS011;56520;49.066;8.660;2024-02-16T01:17:48;6.15;;;2.22;;
69358;SDS011;56520;49.066;8.660;2024-02-16T01:20:14;8.25;;;2.22;;
69358;SDS011;56520;49.066;8.660;2024-02-16T01:22:40;8.20;;;2.40;;
69358;SDS011;56520;49.066;8.660;2024-02-16T01:25:06;6.10;;;1.95;;
69358;SDS011;56520;49.066;8.660;2024-02-16T01:27:32;5.80;;;2.05;;
69358;SDS011;56520;49.066;8.660;2024-02-16T01:29:58;8.70;;;2.20;;
69358;SDS011;56520;49.066;8.660;2024-02-16T01:32:23;5.75;;;1.80;;
69358;SDS011;56520;49.066;8.660;2024-02-16T01:34:48;7.75;;;1.95;;
69358;SDS011;56520;49.066;8.660;2024-02-16T01:37:15;4.93;;;1.75;;
69358;SDS011;56520;49.066;8.660;2024-02-16T01:39:40;6.22;;;1.67;;
69358;SDS011;56520;49.066;8.660;2024-02-16T01:42:06;4.93;;;1.85;;
69358;SDS011;56520;49.066;8.660;2024-02-16T01:44:31;5.28;;;1.98;;
69358;SDS011;56520;49.066;8.660;2024-02-16T01:46:56;5.05;;;1.90;;
69358;SDS011;56520;49.066;8.660;2024-02-16T01:49:22;5.40;;;1.50;;
69358;SDS011;56520;49.066;8.660;2024-02-16T01:51:48;4.97;;;1.90;;
69358;SDS011;56520;49.066;8.660;2024-02-16T01:54:14;3.35;;;1.27;;
69358;SDS011;56520;49.066;8.660;2024-02-16T01:56:42;4.90;;;1.80;;
69358;SDS011;56520;49.066;8.660;2024-02-16T01:59:08;4.63;;;1.58;;
69358;SDS011;56520;49.066;8.660;2024-02-16T02:01:34;4.13;;;1.60;;
69358;SDS011;56520;49.066;8.660;2024-02-16T02:03:59;4.95;;;1.70;;
69358;SDS011;56520;49.066;8.660;2024-02-16T02:06:25;4.00;;;1.70;;
69358;SDS011;56520;49.066;8.660;2024-02-16T02:08:51;3.80;;;1.42;;
69358;SDS011;56520;49.066;8.660;2024-02-16T02:11:16;3.22;;;1.13;;
69358;SDS011;56520;49.066;8.660;2024-02-16T02:13:42;3.92;;;1.55;;
69358;SDS011;56520;49.066;8.660;2024-02-16T02:16:07;4.85;;;1.85;;
69358;SDS011;56520;49.066;8.660;2024-02-16T02:18:34;5.78;;;1.90;;
69358;SDS011;56520;49.066;8.660;2024-02-16T02:21:00;4.55;;;1.58;;
69358;SDS011;56520;49.066;8.660;2024-02-16T02:23:25;4.43;;;1.60;;
69358;SDS011;56520;49.066;8.660;2024-02-16T02:25:50;4.43;;;1.50;;
69358;SDS011;56520;49.066;8.660;2024-02-16T02:28:16;3.92;;;1.40;;
69358;SDS011;56520;49.066;8.660;2024-02-16T02:30:42;3.90;;;1.40;;
69358;SDS011;56520;49.066;8.660;2024-02-16T02:33:10;5.30;;;1.73;;
69358;SDS011;56520;49.066;8.660;2024-02-16T02:35:37;5.40;;;1.73;;
69358;SDS011;56520;49.066;8.660;2024-02-16T02:38:03;3.85;;;1.25;;
69358;SDS011;56520;49.066;8.660;2024-02-16T02:40:29;4.53;;;1.80;;
69358;SDS011;56520;49.066;8.660;2024-02-16T02:42:55;4.38;;;1.50;;
69358;SDS011;56520;49.066;8.660;2024-02-16T02:45:20;4.68;;;1.50;;
69358;SDS011;56520;49.066;8.660;2024-02-16T02:47:46;3.70;;;1.40;;
69358;SDS011;56520;49.066;8.660;2024-02-16T02:50:11;3.97;;;1.50;;
69358;SDS011;56520;49.066;8.660;2024-02-16T02:52:37;3.67;;;1.25;;
69358;SDS011;56520;49.066;8.660;2024-02-16T02:55:03;8.73;;;1.63;;
69358;SDS011;56520;49.066;8.660;2024-02-16T02:57:28;5.65;;;1.95;;
69358;SDS011;56520;49.066;8.660;2024-02-16T03:00:01;5.90;;;1.73;;
69358;SDS011;56520;49.066;8.660;2024-02-16T03:02:32;3.05;;;1.27;;
69358;SDS011;56520;49.066;8.660;2024-02-16T03:04:57;5.47;;;1.95;;
69358;SDS011;56520;49.066;8.660;2024-02-16T03:07:22;4.13;;;1.40;;
69358;SDS011;56520;49.066;8.660;2024-02-16T03:09:48;3.38;;;1.30;;
69358;SDS011;56520;49.066;8.660;2024-02-16T03:12:14;3.50;;;1.20;;
69358;SDS011;56520;49.066;8.660;2024-02-16T03:14:39;3.35;;;1.30;;
69358;SDS011;56520;49.066;8.660;2024-02-16T03:17:04;3.58;;;1.40;;
69358;SDS011;56520;49.066;8.660;2024-02-16T03:19:30;2.70;;;1.20;;
69358;SDS011;56520;49.066;8.660;2024-02-16T03:21:55;7.38;;;1.50;;
69358;SDS011;56520;49.066;8.660;2024-02-16T03:24:21;3.65;;;1.35;;
69358;SDS011;56520;49.066;8.660;2024-02-16T03:26:47;3.88;;;1.42;;
69358;SDS011;56520;49.066;8.660;2024-02-16T03:29:13;3.42;;;1.33;;
69358;SDS011;56520;49.066;8.660;2024-02-16T03:31:39;3.58;;;1.45;;
69358;SDS011;56520;49.066;8.660;2024-02-16T03:34:04;3.20;;;1.30;;
69358;SDS011;56520;49.066;8.660;2024-02-16T03:36:29;3.75;;;1.35;;
69358;SDS011;56520;49.066;8.660;2024-02-16T03:38:55;2.80;;;1.10;;
69358;SDS011;56520;49.066;8.660;2024-02-16T03:41:22;3.47;;;1.40;;
69358;SDS011;56520;49.066;8.660;2024-02-16T03:43:48;3.80;;;1.40;;
69358;SDS011;56520;49.066;8.660;2024-02-16T03:46:14;5.00;;;1.92;;
69358;SDS011;56520;49.066;8.660;2024-02-16T03:48:40;5.43;;;1.75;;
69358;SDS011;56520;49.066;8.660;2024-02-16T03:51:05;4.47;;;1.33;;
69358;SDS011;56520;49.066;8.660;2024-02-16T03:53:31;4.90;;;1.80;;
69358;SDS011;56520;49.066;8.660;2024-02-16T03:55:56;6.10;;;1.75;;
69358;SDS011;56520;49.066;8.660;2024-02-16T03:58:22;6.22;;;2.05;;
69358;SDS011;56520;49.066;8.660;2024-02-16T04:00:47;3.85;;;1.48;;
69358;SDS011;56520;49.066;8.660;2024-02-16T04:03:17;5.20;;;1.90;;
69358;SDS011;56520;49.066;8.660;2024-02-16T04:05:43;3.78;;;1.52;;
69358;SDS011;56520;49.066;8.660;2024-02-16T04:08:08;5.10;;;1.70;;
69358;SDS011;56520;49.066;8.660;2024-02-16T04:10:34;3.63;;;1.35;;
69358;SDS011;56520;49.066;8.660;2024-02-16T04:13:00;4.97;;;1.67;;
69358;SDS011;56520;49.066;8.660;2024-02-16T04:15:26;3.70;;;1.40;;
69358;SDS011;56520;49.066;8.660;2024-02-16T04:17:51;3.75;;;1.58;;
69358;SDS011;56520;49.066;8.660;2024-02-16T04:20:17;4.63;;;1.73;;
69358;SDS011;56520;49.066;8.660;2024-02-16T04:22:43;5.60;;;1.77;;
69358;SDS011;56520;49.066;8.660;2024-02-16T04:25:09;5.45;;;1.55;;
69358;SDS011;56520;49.066;8.660;2024-02-16T04:27:34;5.22;;;1.77;;
69358;SDS011;56520;49.066;8.660;2024-02-16T04:30:00;3.58;;;1.33;;
69358;SDS011;56520;49.066;8.660;2024-02-16T04:32:26;4.22;;;1.40;;
69358;SDS011;56520;49.066;8.660;2024-02-16T04:34:52;4.10;;;1.48;;
69358;SDS011;56520;49.066;8.660;2024-02-16T04:37:18;3.70;;;1.55;;
69358;SDS011;56520;49.066;8.660;2024-02-16T04:39:44;4.70;;;1.50;;
69358;SDS011;56520;49.066;8.660;2024-02-16T04:42:09;3.67;;;1.40;;
69358;SDS011;56520;49.066;8.660;2024-02-16T04:44:38;3.45;;;1.42;;
69358;SDS011;56520;49.066;8.660;2024-02-16T04:47:04;3.67;;;1.40;;
69358;SDS011;56520;49.066;8.660;2024-02-16T04:49:30;3.38;;;1.27;;
69358;SDS011;56520;49.066;8.660;2024-02-16T04:51:55;3.35;;;1.33;;
69358;SDS011;56520;49.066;8.660;2024-02-16T04:54:20;3.90;;;1.40;;
69358;SDS011;56520;49.066;8.660;2024-02-16T04:56:46;4.18;;;1.75;;
69358;SDS011;56520;49.066;8.660;2024-02-16T04:59:11;5.50;;;1.63;;
69358;SDS011;56520;49.066;8.660;2024-02-16T05:01:37;3.65;;;1.40;;
69358;SDS011;56520;49.066;8.660;2024-02-16T05:04:02;3.97;;;1.20;;
69358;SDS011;56520;49.066;8.660;2024-02-16T05:06:28;5.05;;;1.80;;
69358;SDS011;56520;49.066;8.660;2024-02-16T05:08:53;5.28;;;1.88;;
69358;SDS011;56520;49.066;8.660;2024-02-16T05:11:21;4.55;;;1.63;;
69358;SDS011;56520;49.066;8.660;2024-02-16T05:13:48;4.20;;;1.58;;
69358;SDS011;56520;49.066;8.660;2024-02-16T05:16:14;3.35;;;1.33;;
69358;SDS011;56520;49.066;8.660;2024-02-16T05:18:39;4.57;;;1.42;;
69358;SDS011;56520;49.066;8.660;2024-02-16T05:21:05;3.33;;;1.20;;
69358;SDS011;56520;49.066;8.660;2024-02-16T05:23:31;3.58;;;1.58;;
69358;SDS011;56520;49.066;8.660;2024-02-16T05:25:57;4.45;;;1.65;;
69358;SDS011;56520;49.066;8.660;2024-02-16T05:28:22;4.53;;;1.48;;
69358;SDS011;56520;49.066;8.660;2024-02-16T05:30:47;5.00;;;1.55;;
69358;SDS011;56520;49.066;8.660;2024-02-16T05:33:13;4.68;;;1.80;;
69358;SDS011;56520;49.066;8.660;2024-02-16T05:35:41;5.35;;;2.08;;
69358;SDS011;56520;49.066;8.660;2024-02-16T05:38:09;7.60;;;2.65;;
69358;SDS011;56520;49.066;8.660;2024-02-16T05:40:56;6.32;;;2.13;;
69358;SDS011;56520;49.066;8.660;2024-02-16T05:43:22;5.78;;;2.05;;
69358;SDS011;56520;49.066;8.660;2024-02-16T05:45:51;4.53;;;1.45;;
69358;SDS011;56520;49.066;8.660;2024-02-16T05:48:16;4.43;;;1.65;;
69358;SDS011;56520;49.066;8.660;2024-02-16T05:50:42;6.00;;;2.17;;
69358;SDS011;56520;49.066;8.660;2024-02-16T05:53:09;6.07;;;1.70;;
69358;SDS011;56520;49.066;8.660;2024-02-16T05:55:35;5.93;;;2.10;;
69358;SDS011;56520;49.066;8.660;2024-02-16T05:58:01;8.63;;;2.33;;
69358;SDS011;56520;49.066;8.660;2024-02-16T06:00:29;3.75;;;1.58;;
69358;SDS011;56520;49.066;8.660;2024-02-16T06:02:56;3.70;;;1.65;;
69358;SDS011;56520;49.066;8.660;2024-02-16T06:05:21;6.97;;;2.00;;
69358;SDS011;56520;49.066;8.660;2024-02-16T06:07:47;6.97;;;3.33;;
69358;SDS011;56520;49.066;8.660;2024-02-16T06:10:13;9.10;;;2.90;;
69358;SDS011;56520;49.066;8.660;2024-02-16T06:12:38;6.35;;;2.47;;
69358;SDS011;56520;49.066;8.660;2024-02-16T06:15:04;5.68;;;2.17;;
69358;SDS011;56520;49.066;8.660;2024-02-16T06:17:30;5.45;;;1.92;;
69358;SDS011;56520;49.066;8.660;2024-02-16T06:19:56;5.93;;;2.33;;
69358;SDS011;56520;49.066;8.660;2024-02-16T06:22:21;5.28;;;2.17;;
69358;SDS011;56520;49.066;8.660;2024-02-16T06:24:46;6.18;;;1.90;;
69358;SDS011;56520;49.066;8.660;2024-02-16T06:27:12;4.57;;;1.83;;
69358;SDS011;56520;49.066;8.660;2024-02-16T06:29:38;5.60;;;1.80;;
69358;SDS011;56520;49.066;8.660;2024-02-16T06:32:03;5.05;;;2.15;;
69358;SDS011;56520;49.066;8.660;2024-02-16T06:34:30;4.88;;;1.80;;
69358;SDS011;56520;49.066;8.660;2024-02-16T06:36:56;5.43;;;1.52;;
69358;SDS011;56520;49.066;8.660;2024-02-16T06:39:21;5.03;;;1.40;;
69358;SDS011;56520;49.066;8.660;2024-02-16T06:41:47;5.47;;;2.25;;
69358;SDS011;56520;49.066;8.660;2024-02-16T06:44:14;5.03;;;2.28;;
69358;SDS011;56520;49.066;8.660;2024-02-16T06:46:40;5.20;;;1.40;;
69358;SDS011;56520;49.066;8.660;2024-02-16T06:49:06;4.05;;;1.40;;
69358;SDS011;56520;49.066;8.660;2024-02-16T06:51:32;3.55;;;1.50;;
69358;SDS011;56520;49.066;8.660;2024-02-16T06:53:57;5.03;;;1.60;;
69358;SDS011;56520;49.066;8.660;2024-02-16T06:56:22;3.00;;;1.30;;
69358;SDS011;56520;49.066;8.660;2024-02-16T06:58:49;9.60;;;2.20;;
69358;SDS011;56520;49.066;8.660;2024-02-16T07:01:14;5.75;;;1.92;;
69358;SDS011;56520;49.066;8.660;2024-02-16T07:03:41;6.65;;;2.10;;
69358;SDS011;56520;49.066;8.660;2024-02-16T07:06:08;3.72;;;1.50;;
69358;SDS011;56520;49.066;8.660;2024-02-16T07:08:37;7.82;;;3.45;;
69358;SDS011;56520;49.066;8.660;2024-02-16T07:11:04;10.20;;;4.97;;
69358;SDS011;56520;49.066;8.660;2024-02-16T07:13:33;11.07;;;5.50;;
69358;SDS011;56520;49.066;8.660;2024-02-16T07:15:59;9.23;;;4.68;;
69358;SDS011;56520;49.066;8.660;2024-02-16T07:18:25;9.70;;;4.55;;
69358;SDS011;56520;49.066;8.660;2024-02-16T07:20:50;8.50;;;3.65;;
69358;SDS011;56520;49.066;8.660;2024-02-16T07:23:16;8.57;;;3.35;;
69358;SDS011;56520;49.066;8.660;2024-02-16T07:25:42;6.25;;;2.33;;
69358;SDS011;56520;49.066;8.660;2024-02-16T07:28:08;8.60;;;2.22;;
69358;SDS011;56520;49.066;8.660;2024-02-16T07:30:35;8.18;;;3.22;;
69358;SDS011;56520;49.066;8.660;2024-02-16T07:33:04;6.72;;;2.88;;
69358;SDS011;56520;49.066;8.660;2024-02-16T07:35:30;7.13;;;2.65;;
69358;SDS011;56520;49.066;8.660;2024-02-16T07:37:56;9.77;;;2.90;;
69358;SDS011;56520;49.066;8.660;2024-02-16T07:40:21;5.68;;;2.20;;
69358;SDS011;56520;49.066;8.660;2024-02-16T07:42:47;7.57;;;2.35;;
69358;SDS011;56520;49.066;8.660;2024-02-16T07:45:12;7.53;;;2.22;;
69358;SDS011;56520;49.066;8.660;2024-02-16T07:47:40;8.38;;;3.00;;
69358;SDS011;56520;49.066;8.660;2024-02-16T07:50:06;7.40;;;2.70;;
69358;SDS011;56520;49.066;8.660;2024-02-16T07:52:35;5.38;;;2.22;;
69358;SDS011;56520;49.066;8.660;2024-02-16T07:55:01;7.22;;;2.75;;
69358;SDS011;56520;49.066;8.660;2024-02-16T07:57:27;7.38;;;2.40;;
69358;SDS011;56520;49.066;8.660;2024-02-16T07:59:52;8.07;;;2.72;;
69358;SDS011;56520;49.066;8.660;2024-02-16T08:02:18;5.05;;;1.95;;
69358;SDS011;56520;49.066;8.660;2024-02-16T08:04:48;5.72;;;2.30;;
69358;SDS011;56520;49.066;8.660;2024-02-16T08:07:14;6.03;;;2.53;;
69358;SDS011;56520;49.066;8.660;2024-02-16T08:09:43;8.75;;;3.03;;
69358;SDS011;56520;49.066;8.660;2024-02-16T08:12:09;9.13;;;3.85;;
69358;SDS011;56520;49.066;8.660;2024-02-16T08:14:35;7.78;;;3.17;;
69358;SDS011;56520;49.066;8.660;2024-02-16T08:17:00;7.10;;;2.58;;
69358;SDS011;56520;49.066;8.660;2024-02-16T08:19:36;6.28;;;2.42;;
69358;SDS011;56520;49.066;8.660;2024-02-16T08:22:02;15.25;;;3.63;;
69358;SDS011;56520;49.066;8.660;2024-02-16T08:24:32;9.13;;;3.60;;
69358;SDS011;56520;49.066;8.660;2024-02-16T08:27:01;8.23;;;3.42;;
69358;SDS011;56520;49.066;8.660;2024-02-16T08:29:27;10.52;;;2.95;;
69358;SDS011;56520;49.066;8.660;2024-02-16T08:31:53;8.52;;;3.40;;
69358;SDS011;56520;49.066;8.660;2024-02-16T08:34:19;10.07;;;3.83;;
69358;SDS011;56520;49.066;8.660;2024-02-16T08:36:45;8.15;;;3.10;;
69358;SDS011;56520;49.066;8.660;2024-02-16T08:39:15;8.93;;;3.47;;
69358;SDS011;56520;49.066;8.660;2024-02-16T08:41:41;9.82;;;3.10;;
69358;SDS011;56520;49.066;8.660;2024-02-16T08:44:09;6.60;;;2.72;;
69358;SDS011;56520;49.066;8.660;2024-02-16T08:46:35;8.20;;;2.75;;
69358;SDS011;56520;49.066;8.660;2024-02-16T08:49:04;8.30;;;2.95;;
69358;SDS011;56520;49.066;8.660;2024-02-16T08:51:31;10.00;;;3.78;;
69358;SDS011;56520;49.066;8.660;2024-02-16T08:53:57;8.63;;;3.10;;
69358;SDS011;56520;49.066;8.660;2024-02-16T08:56:22;10.18;;;3.45;;
69358;SDS011;56520;49.066;8.660;2024-02-16T08:58:48;8.43;;;3.58;;
69358;SDS011;56520;49.066;8.660;2024-02-16T09:01:13;6.95;;;3.00;;
69358;SDS011;56520;49.066;8.660;2024-02-16T09:03:40;7.63;;;2.83;;
69358;SDS011;56520;49.066;8.660;2024-02-16T09:06:06;8.75;;;3.50;;
69358;SDS011;56520;49.066;8.660;2024-02-16T09:08:32;10.30;;;3.95;;
69358;SDS011;56520;49.066;8.660;2024-02-16T09:11:00;7.45;;;3.75;;
69358;SDS011;56520;49.066;8.660;2024-02-16T09:13:25;14.02;;;4.60;;
69358;SDS011;56520;49.066;8.660;2024-02-16T09:15:51;8.95;;;4.32;;
69358;SDS011;56520;49.066;8.660;2024-02-16T09:18:17;9.35;;;3.38;;
69358;SDS011;56520;49.066;8.660;2024-02-16T09:20:42;8.48;;;3.00;;
69358;SDS011;56520;49.066;8.660;2024-02-16T09:23:08;9.30;;;3.40;;
69358;SDS011;56520;49.066;8.660;2024-02-16T09:25:34;6.72;;;2.63;;
69358;SDS011;56520;49.066;8.660;2024-02-16T09:28:00;8.20;;;2.80;;
69358;SDS011;56520;49.066;8.660;2024-02-16T09:30:25;5.97;;;2.60;;
69358;SDS011;56520;49.066;8.660;2024-02-16T09:32:51;8.40;;;3.53;;
69358;SDS011;56520;49.066;8.660;2024-02-16T09:35:16;8.82;;;3.42;;
69358;SDS011;56520;49.066;8.660;2024-02-16T09:37:42;9.40;;;4.10;;
69358;SDS011;56520;49.066;8.660;2024-02-16T09:40:07;10.70;;;4.03;;
69358;SDS011;56520;49.066;8.660;2024-02-16T09:42:36;9.10;;;3.58;;
69358;SDS011;56520;49.066;8.660;2024-02-16T09:45:03;8.80;;;3.80;;
69358;SDS011;56520;49.066;8.660;2024-02-16T09:47:31;9.70;;;3.72;;
69358;SDS011;56520;49.066;8.660;2024-02-16T09:49:59;11.38;;;3.63;;
69358;SDS011;56520;49.066;8.660;2024-02-16T09:52:25;8.63;;;3.15;;
69358;SDS011;56520;49.066;8.660;2024-02-16T09:54:51;9.18;;;3.42;;
69358;SDS011;56520;49.066;8.660;2024-02-16T09:57:17;8.32;;;3.22;;
69358;SDS011;56520;49.066;8.660;2024-02-16T09:59:43;7.05;;;2.75;;
69358;SDS011;56520;49.066;8.660;2024-02-16T10:02:08;8.65;;;2.90;;
69358;SDS011;56520;49.066;8.660;2024-02-16T10:04:34;7.25;;;3.30;;
69358;SDS011;56520;49.066;8.660;2024-02-16T10:06:59;8.23;;;3.30;;
69358;SDS011;56520;49.066;8.660;2024-02-16T10:09:25;7.13;;;2.72;;
69358;SDS011;56520;49.066;8.660;2024-02-16T10:11:51;6.68;;;2.80;;
69358;SDS011;56520;49.066;8.660;2024-02-16T10:14:17;6.63;;;2.60;;
69358;SDS011;56520;49.066;8.660;2024-02-16T10:16:44;5.88;;;2.72;;
69358;SDS011;56520;49.066;8.660;2024-02-16T10:19:11;7.93;;;2.72;;
69358;SDS011;56520;49.066;8.660;2024-02-16T10:21:37;7.50;;;2.55;;
69358;SDS011;56520;49.066;8.660;2024-02-16T10:24:08;7.65;;;2.50;;
69358;SDS011;56520;49.066;8.660;2024-02-16T10:26:37;8.10;;;3.00;;
69358;SDS011;56520;49.066;8.660;2024-02-16T10:29:04;8.05;;;2.63;;
69358;SDS011;56520;49.066;8.660;2024-02-16T10:31:31;7.75;;;2.40;;
69358;SDS011;56520;49.066;8.660;2024-02-16T10:33:58;7.95;;;2.33;;
69358;SDS011;56520;49.066;8.660;2024-02-16T10:36:25;4.85;;;1.95;;
69358;SDS011;56520;49.066;8.660;2024-02-16T10:38:54;6.32;;;2.53;;
69358;SDS011;56520;49.066;8.660;2024-02-16T10:41:22;5.82;;;2.00;;
69358;SDS011;56520;49.066;8.660;2024-02-16T10:43:52;6.20;;;2.30;;
69358;SDS011;56520;49.066;8.660;2024-02-16T10:46:19;6.25;;;2.38;;
69358;SDS011;56520;49.066;8.660;2024-02-16T10:48:45;5.80;;;2.10;;
69358;SDS011;56520;49.066;8.660;2024-02-16T10:51:10;4.57;;;1.80;;
69358;SDS011;56520;49.066;8.660;2024-02-16T10:53:37;5.40;;;1.65;;
69358;SDS011;56520;49.066;8.660;2024-02-16T10:56:03;5.88;;;1.80;;
69358;SDS011;56520;49.066;8.660;2024-02-16T10:58:28;4.82;;;1.90;;
69358;SDS011;56520;49.066;8.660;2024-02-16T11:00:55;6.00;;;2.05;;
69358;SDS011;56520;49.066;8.660;2024-02-16T11:03:22;4.55;;;1.50;;
69358;SDS011;56520;49.066;8.660;2024-02-16T11:05:49;6.88;;;2.78;;
69358;SDS011;56520;49.066;8.660;2024-02-16T11:08:15;6.78;;;2.42;;
69358;SDS011;56520;49.066;8.660;2024-02-16T11:13:24;5.35;;;1.60;;
69358;SDS011;56520;49.066;8.660;2024-02-16T11:16:11;5.75;;;1.77;;
69358;SDS011;56520;49.066;8.660;2024-02-16T11:18:38;5.50;;;1.83;;
69358;SDS011;56520;49.066;8.660;2024-02-16T11:21:05;7.13;;;2.35;;
69358;SDS011;56520;49.066;8.660;2024-02-16T11:23:32;6.10;;;1.83;;
69358;SDS011;56520;49.066;8.660;2024-02-16T11:26:00;6.50;;;2.55;;
69358;SDS011;56520;49.066;8.660;2024-02-16T11:28:27;6.63;;;1.77;;
69358;SDS011;56520;49.066;8.660;2024-02-16T11:30:56;5.18;;;1.92;;
69358;SDS011;56520;49.066;8.660;2024-02-16T11:33:21;8.32;;;2.35;;
69358;SDS011;56520;49.066;8.660;2024-02-16T11:35:54;6.90;;;2.58;;
69358;SDS011;56520;49.066;8.660;2024-02-16T11:38:21;6.03;;;2.25;;
69358;SDS011;56520;49.066;8.660;2024-02-16T11:40:56;5.13;;;1.95;;
69358;SDS011;56520;49.066;8.660;2024-02-16T11:43:24;5.50;;;2.08;;
69358;SDS011;56520;49.066;8.660;2024-02-16T11:45:50;8.73;;;2.60;;
69358;SDS011;56520;49.066;8.660;2024-02-16T11:48:23;8.23;;;3.25;;
69358;SDS011;56520;49.066;8.660;2024-02-16T11:50:57;6.55;;;1.80;;
69358;SDS011;56520;49.066;8.660;2024-02-16T11:53:24;6.80;;;1.42;;
69358;SDS011;56520;49.066;8.660;2024-02-16T11:55:50;7.72;;;1.70;;
69358;SDS011;56520;49.066;8.660;2024-02-16T11:58:18;5.82;;;1.90;;
69358;SDS011;56520;49.066;8.660;2024-02-16T12:00:44;6.63;;;1.33;;
69358;SDS011;56520;49.066;8.660;2024-02-16T12:03:12;7.68;;;1.42;;
69358;SDS011;56520;49.066;8.660;2024-02-16T12:08:18;8.93;;;1.70;;
69358;SDS011;56520;49.066;8.660;2024-02-16T12:10:46;4.63;;;1.40;;
69358;SDS011;56520;49.066;8.660;2024-02-16T12:13:11;7.05;;;1.70;;
69358;SDS011;56520;49.066;8.660;2024-02-16T12:15:37;4.95;;;1.70;;
69358;SDS011;56520;49.066;8.660;2024-02-16T12:18:03;7.35;;;1.77;;
69358;SDS011;56520;49.066;8.660;2024-02-16T12:20:29;5.05;;;1.60;;
69358;SDS011;56520;49.066;8.660;2024-02-16T12:22:56;4.88;;;1.77;;
69358;SDS011;56520;49.066;8.660;2024-02-16T12:25:21;7.38;;;1.80;;
69358;SDS011;56520;49.066;8.660;2024-02-16T12:27:47;6.70;;;1.83;;
69358;SDS011;56520;49.066;8.660;2024-02-16T12:30:12;6.50;;;1.90;;
69358;SDS011;56520;49.066;8.660;2024-02-16T12:32:38;7.13;;;2.03;;
69358;SDS011;56520;49.066;8.660;2024-02-16T12:35:03;7.53;;;1.70;;
69358;SDS011;56520;49.066;8.660;2024-02-16T12:37:30;7.60;;;1.70;;
69358;SDS011;56520;49.066;8.660;2024-02-16T12:39:55;7.50;;;1.85;;
69358;SDS011;56520;49.066;8.660;2024-02-16T12:42:21;5.68;;;1.33;;
69358;SDS011;56520;49.066;8.660;2024-02-16T12:44:46;6.40;;;1.77;;
69358;SDS011;56520;49.066;8.660;2024-02-16T12:47:12;7.70;;;2.45;;
69358;SDS011;56520;49.066;8.660;2024-02-16T12:49:37;5.43;;;1.40;;
69358;SDS011;56520;49.066;8.660;2024-02-16T12:52:02;5.13;;;1.35;;
69358;SDS011;56520;49.066;8.660;2024-02-16T12:54:28;3.90;;;1.13;;
69358;SDS011;56520;49.066;8.660;2024-02-16T12:56:53;5.80;;;1.48;;
69358;SDS011;56520;49.066;8.660;2024-02-16T12:59:19;4.72;;;1.60;;
69358;SDS011;56520;49.066;8.660;2024-02-16T13:01:44;4.13;;;1.30;;
69358;SDS011;56520;49.066;8.660;2024-02-16T13:04:11;5.40;;;1.70;;
69358;SDS011;56520;49.066;8.660;2024-02-16T13:06:38;6.95;;;1.55;;
69358;SDS011;56520;49.066;8.660;2024-02-16T13:09:03;3.38;;;1.27;;
69358;SDS011;56520;49.066;8.660;2024-02-16T13:11:29;5.28;;;1.35;;
69358;SDS011;56520;49.066;8.660;2024-02-16T13:13:55;6.28;;;1.40;;
69358;SDS011;56520;49.066;8.660;2024-02-16T13:16:20;5.13;;;1.55;;
69358;SDS011;56520;49.066;8.660;2024-02-16T13:18:46;5.70;;;1.52;;
69358;SDS011;56520;49.066;8.660;2024-02-16T13:21:11;4.38;;;1.50;;
69358;SDS011;56520;49.066;8.660;2024-02-16T13:23:37;5.95;;;1.80;;
69358;SDS011;56520;49.066;8.660;2024-02-16T13:26:02;5.07;;;1.67;;
69358;SDS011;56520;49.066;8.660;2024-02-16T13:28:29;4.32;;;1.20;;
69358;SDS011;56520;49.066;8.660;2024-02-16T13:30:55;3.83;;;1.25;;
69358;SDS011;56520;49.066;8.660;2024-02-16T13:33:20;4.93;;;1.30;;
69358;SDS011;56520;49.066;8.660;2024-02-16T13:35:46;5.07;;;1.42;;
69358;SDS011;56520;49.066;8.660;2024-02-16T13:38:11;3.88;;;1.23;;
69358;SDS011;56520;49.066;8.660;2024-02-16T13:40:37;5.30;;;1.50;;
69358;SDS011;56520;49.066;8.660;2024-02-16T13:43:02;3.60;;;1.33;;
69358;SDS011;56520;49.066;8.660;2024-02-16T13:45:29;5.05;;;1.60;;
69358;SDS011;56520;49.066;8.660;2024-02-16T13:48:10;2.85;;;0.98;;
69358;SDS011;56520;49.066;8.660;2024-02-16T13:50:36;4.18;;;1.30;;
69358;SDS011;56520;49.066;8.660;2024-02-16T13:53:01;6.30;;;1.27;;
69358;SDS011;56520;49.066;8.660;2024-02-16T13:55:26;5.50;;;1.10;;
69358;SDS011;56520;49.066;8.660;2024-02-16T13:57:52;5.57;;;1.30;;
69358;SDS011;56520;49.066;8.660;2024-02-16T14:00:17;4.82;;;1.20;;
69358;SDS011;56520;49.066;8.660;2024-02-16T14:02:43;3.58;;;1.13;;
69358;SDS011;56520;49.066;8.660;2024-02-16T14:05:09;5.53;;;1.60;;
69358;SDS011;56520;49.066;8.660;2024-02-16T14:07:34;3.63;;;1.02;;
69358;SDS011;56520;49.066;8.660;2024-02-16T14:10:00;2.28;;;0.93;;
69358;SDS011;56520;49.066;8.660;2024-02-16T14:12:25;2.78;;;1.20;;
69358;SDS011;56520;49.066;8.660;2024-02-16T14:14:51;3.20;;;1.30;;
69358;SDS011;56520;49.066;8.660;2024-02-16T14:17:16;5.38;;;1.25;;
69358;SDS011;56520;49.066;8.660;2024-02-16T14:19:42;7.03;;;1.67;;
69358;SDS011;56520;49.066;8.660;2024-02-16T14:22:07;3.00;;;1.10;;
69358;SDS011;56520;49.066;8.660;2024-02-16T14:24:33;3.92;;;1.10;;
69358;SDS011;56520;49.066;8.660;2024-02-16T14:26:59;7.95;;;1.50;;
69358;SDS011;56520;49.066;8.660;2024-02-16T14:29:24;4.45;;;1.17;;
69358;SDS011;56520;49.066;8.660;2024-02-16T14:31:50;4.32;;;1.17;;
69358;SDS011;56520;49.066;8.660;2024-02-16T14:34:15;5.32;;;1.40;;
69358;SDS011;56520;49.066;8.660;2024-02-16T14:36:40;2.33;;;0.80;;
69358;SDS011;56520;49.066;8.660;2024-02-16T14:39:06;3.75;;;1.20;;
69358;SDS011;56520;49.066;8.660;2024-02-16T14:41:33;3.38;;;1.00;;
69358;SDS011;56520;49.066;8.660;2024-02-16T14:43:59;3.53;;;0.85;;
69358;SDS011;56520;49.066;8.660;2024-02-16T14:46:26;4.05;;;1.17;;